Hilger, Montana
Current Conditions -  °F | °C
As of 5:54 AM on Thursday 23 Oct 2014 (Local Time) from KLWT Reporting Station
Clear Clear  
Wind Chill: 12°   Ceiling: Unl
Heat Index: 12°   Visibility: 10mi
Dew Point: -2°   Wind: 13mph
Humidity: 40%   Direction: 230°SW
Pressure: 29.86"   Gusts: NA
Location:  47.25°N, 109.36°W
Report Text: KLWT 231154Z AUTO 23011KT 10SM CLR 12/M02 A2986 RMK AO2 SLP097 T01171017 10122 20050 58002
Loading
Personal Weather Stations






























Interactive Weather Map
Tropical Storm Tracking
New forecast layout! Learn more

10-Day Weather Forecast

Advertisements
Track Severe Weather on mobile